createdAt,value
2023-03-22T00:04:27.984Z,67.40
2023-03-22T00:09:29.691Z,67.40
2023-03-22T00:14:31.363Z,67.40
2023-03-22T00:19:33.868Z,67.30
2023-03-22T00:24:35.769Z,67.30
2023-03-22T00:29:37.490Z,67.40
2023-03-22T00:34:39.207Z,67.30
2023-03-22T00:39:40.932Z,67.40
2023-03-22T00:44:42.818Z,67.30
2023-03-22T00:49:44.755Z,67.30
2023-03-22T00:54:46.587Z,67.30
2023-03-22T00:59:48.814Z,67.30
2023-03-22T01:04:50.505Z,67.30
2023-03-22T01:09:52.255Z,67.20
2023-03-22T01:14:53.930Z,67.20
2023-03-22T01:19:55.600Z,67.10
2023-03-22T01:24:57.242Z,67.00
2023-03-22T01:29:59.165Z,66.90
2023-03-22T01:35:00.789Z,66.90
2023-03-22T01:40:03.340Z,66.90
2023-03-22T01:45:13.858Z,66.90
2023-03-22T01:50:16.762Z,66.70
2023-03-22T01:55:22.756Z,66.80
2023-03-22T02:00:24.463Z,66.80
2023-03-22T02:05:26.437Z,66.70
2023-03-22T02:10:28.257Z,66.70
2023-03-22T02:15:33.927Z,66.70
2023-03-22T02:20:40.109Z,66.50
2023-03-22T02:26:00.424Z,66.50
2023-03-22T02:31:08.040Z,66.50
2023-03-22T02:36:21.810Z,66.60
2023-03-22T02:41:41.827Z,66.50
2023-03-22T02:46:46.641Z,66.50
2023-03-22T02:51:58.501Z,66.50
2023-03-22T02:57:04.168Z,66.50
2023-03-22T03:02:08.276Z,66.40
2023-03-22T03:07:11.570Z,66.40
2023-03-22T03:12:14.784Z,66.40
2023-03-22T03:17:24.587Z,66.30
2023-03-22T03:22:42.664Z,66.30
2023-03-22T03:27:51.015Z,66.20
2023-03-22T03:33:00.391Z,66.20
2023-03-22T03:38:09.955Z,66.30
2023-03-22T03:43:12.364Z,66.30
2023-03-22T03:48:19.970Z,66.20
2023-03-22T03:53:21.769Z,66.20
2023-03-22T03:58:23.337Z,66.20
2023-03-22T04:03:24.995Z,66.20
2023-03-22T04:08:27.328Z,66.20
2023-03-22T04:13:29.877Z,66.20
2023-03-22T04:18:32.274Z,66.30
2023-03-22T04:23:33.974Z,66.30
2023-03-22T04:28:35.567Z,66.30
2023-03-22T04:33:39.446Z,66.30
2023-03-22T04:38:41.243Z,66.20
2023-03-22T04:43:46.897Z,66.30
2023-03-22T06:07:33.116Z,65.60
2023-03-22T06:12:34.954Z,65.30
2023-03-22T06:17:36.646Z,65.30
2023-03-22T06:22:38.517Z,65.20
2023-03-22T06:27:40.328Z,65.10
2023-03-22T06:32:42.030Z,65.10
2023-03-22T06:37:43.971Z,65.10
2023-03-22T06:42:46.106Z,65.20
2023-03-22T06:47:47.806Z,65.20
2023-03-22T06:52:49.451Z,65.10
2023-03-22T06:57:51.069Z,65.20
2023-03-22T07:02:52.900Z,65.20
2023-03-22T07:07:54.610Z,65.30
2023-03-22T07:12:56.428Z,65.30
2023-03-22T07:17:59.404Z,65.40
2023-03-22T07:23:01.100Z,66.50
2023-03-22T07:28:02.977Z,65.50
2023-03-22T07:33:05.117Z,65.50
2023-03-22T07:38:06.880Z,66.50
2023-03-22T07:43:11.969Z,65.50
2023-03-22T07:48:13.742Z,65.60
2023-03-22T07:53:16.264Z,65.50
2023-03-22T07:58:18.010Z,65.70
2023-03-22T08:03:19.906Z,65.70
2023-03-22T08:08:21.605Z,65.60
2023-03-22T08:13:23.774Z,65.60
2023-03-22T08:18:25.822Z,65.70
2023-03-22T08:23:40.548Z,65.70
2023-03-22T08:28:42.944Z,65.70
2023-03-22T08:33:44.826Z,65.70
2023-03-22T08:38:46.615Z,65.70
2023-03-22T08:43:48.184Z,65.80
2023-03-22T08:48:52.839Z,65.80
2023-03-22T08:53:54.481Z,65.80
2023-03-22T08:58:56.229Z,65.70
2023-03-22T09:03:57.952Z,66.50
2023-03-22T09:08:59.816Z,66.60
2023-03-22T09:14:01.544Z,66.90
2023-03-22T09:19:03.292Z,67.00
2023-03-22T09:24:05.129Z,67.30
2023-03-22T09:29:07.160Z,67.10
2023-03-22T09:34:08.733Z,66.80
2023-03-22T09:39:10.330Z,66.30
2023-03-22T09:44:17.981Z,65.70
2023-03-22T09:49:22.654Z,65.40
2023-03-22T09:54:30.680Z,65.10
2023-03-22T09:59:48.444Z,64.80
2023-03-22T10:04:55.945Z,64.70
2023-03-22T10:10:06.657Z,64.60
2023-03-22T10:15:16.207Z,64.60
2023-03-22T10:20:29.414Z,64.70
2023-03-22T10:25:34.017Z,64.80
2023-03-22T10:30:37.780Z,64.70
2023-03-22T10:35:40.362Z,64.60
2023-03-22T10:40:45.582Z,64.80
2023-03-22T10:45:47.310Z,64.80
2023-03-22T10:50:49.022Z,64.90
2023-03-22T10:55:50.917Z,64.90
2023-03-22T11:00:54.335Z,64.90
2023-03-22T11:06:05.302Z,64.90
2023-03-22T11:11:07.865Z,65.00
2023-03-22T11:16:09.699Z,65.00
2023-03-22T11:21:12.025Z,65.00
2023-03-22T11:26:14.970Z,64.80
2023-03-22T11:31:18.084Z,64.70
2023-03-22T11:36:19.813Z,64.70
2023-03-22T11:41:40.013Z,64.80
2023-03-22T11:46:48.917Z,64.80
2023-03-22T11:51:52.068Z,65.30
2023-03-22T11:56:56.068Z,66.20
2023-03-22T12:02:04.992Z,66.20
2023-03-22T12:07:13.494Z,66.20
2023-03-22T12:12:23.198Z,65.90
2023-03-22T12:17:44.000Z,66.60
2023-03-22T12:22:51.307Z,67.00
2023-03-22T12:27:58.130Z,65.80
2023-03-22T12:33:03.333Z,65.60
2023-03-22T12:38:10.340Z,65.60
2023-03-22T12:43:16.336Z,65.50
2023-03-22T12:48:27.576Z,65.40
2023-03-22T12:53:32.630Z,65.40
2023-03-22T12:58:34.207Z,65.40
2023-03-22T13:03:40.323Z,65.40
2023-03-22T13:09:00.978Z,65.50
2023-03-22T13:14:02.711Z,65.60
2023-03-22T13:19:24.272Z,65.40
2023-03-22T13:24:26.774Z,65.30
2023-03-22T13:29:38.172Z,65.30
2023-03-22T13:34:45.098Z,65.50
2023-03-22T13:39:51.931Z,65.40
2023-03-22T13:45:00.020Z,65.40
2023-03-22T13:50:06.120Z,65.50
2023-03-22T13:55:35.885Z,65.30
2023-03-22T14:00:40.619Z,65.30
2023-03-22T14:05:44.893Z,65.80
2023-03-22T14:10:49.925Z,66.10
2023-03-22T14:15:53.312Z,65.70
2023-03-22T14:20:59.479Z,65.50
